Time;durP1;ratioP1;P1;durP2;ratioP2;P2;SDS_P1;SDS_P2;PMS_P1;PMS_P2;Temp;Humidity;BMP_temperature;BMP_pressure;BME280_temperature;BME280_humidity;BME280_pressure;Samples;Min_cycle;Max_cycle;Signal;HPM_P1;HPM_P2
2021/10/22 00:00:29;;;;;;;5.50;2.15;;;;;;;3.61;80.93;100103.06;8481110;33;20418;-74
2021/10/22 00:05:34;;;;;;;3.75;1.52;;;;;;;3.53;81.70;100094.69;8480347;33;20157;-74
2021/10/22 00:10:37;;;;;;;7.05;2.30;;;;;;;3.67;81.27;100104.53;8455774;33;21222;-73
2021/10/22 00:15:41;;;;;;;9.32;2.00;;;;;;;3.45;80.80;100111.03;8481331;33;20870;-75
2021/10/22 00:20:45;;;;;;;5.45;2.28;;;;;;;3.65;80.34;100111.75;8481539;33;20267;-74
2021/10/22 00:25:48;;;;;;;5.63;2.00;;;;;;;3.73;80.23;100126.31;8481018;33;20161;-74
2021/10/22 00:30:51;;;;;;;3.95;2.22;;;;;;;3.57;80.99;100112.16;8487416;33;20263;-75
2021/10/22 00:35:55;;;;;;;8.23;2.90;;;;;;;3.48;80.91;100113.56;8501809;33;20153;-74
2021/10/22 00:41:00;;;;;;;5.85;2.10;;;;;;;3.61;80.53;100121.66;8505015;33;20957;-74
2021/10/22 00:46:03;;;;;;;8.13;3.08;;;;;;;3.63;80.40;100111.81;8503340;33;20194;-74
2021/10/22 00:51:11;;;;;;;6.22;2.42;;;;;;;3.66;80.44;100119.59;8503611;33;20545;-74
2021/10/22 00:56:16;;;;;;;7.63;2.10;;;;;;;3.53;81.09;100118.59;8496258;33;20567;-74
2021/10/22 01:01:21;;;;;;;2.97;1.83;;;;;;;3.64;80.75;100123.28;8466421;33;20156;-74
2021/10/22 01:06:26;;;;;;;9.48;2.15;;;;;;;3.73;80.54;100125.44;8491286;33;20418;-73
2021/10/22 01:11:31;;;;;;;9.52;2.42;;;;;;;3.73;80.12;100120.13;8490820;33;20865;-73
2021/10/22 01:16:37;;;;;;;7.97;2.22;;;;;;;3.76;80.32;100122.63;8491366;33;20583;-74
2021/10/22 01:21:42;;;;;;;6.80;2.40;;;;;;;3.79;80.35;100126.91;8492983;33;20443;-75
2021/10/22 01:26:46;;;;;;;4.20;2.38;;;;;;;3.83;80.24;100134.59;8492262;33;20513;-74
2021/10/22 01:31:49;;;;;;;5.55;3.03;;;;;;;3.95;79.56;100130.41;8503615;33;20153;-74
2021/10/22 01:36:54;;;;;;;4.00;1.70;;;;;;;4.05;79.13;100128.03;8503293;33;20126;-75
2021/10/22 01:41:57;;;;;;;5.28;1.95;;;;;;;4.02;79.36;100113.13;8508539;33;20195;-74
2021/10/22 01:47:00;;;;;;;8.85;2.78;;;;;;;4.25;78.47;100117.13;8508834;33;20452;-74
2021/10/22 01:52:05;;;;;;;4.50;2.15;;;;;;;3.93;79.96;100114.53;8510307;33;20532;-74
2021/10/22 01:57:10;;;;;;;6.65;2.67;;;;;;;4.03;79.14;100113.97;8513318;33;20133;-74
2021/10/22 02:02:15;;;;;;;4.90;2.60;;;;;;;3.93;80.03;100100.38;8506407;33;20477;-75
2021/10/22 02:07:20;;;;;;;5.10;2.22;;;;;;;3.82;80.53;100114.28;8480471;33;20165;-74
2021/10/22 02:12:23;;;;;;;6.38;2.70;;;;;;;3.74;81.11;100116.53;8503477;33;20188;-74
2021/10/22 02:17:28;;;;;;;7.35;3.13;;;;;;;3.77;81.12;100105.72;8482771;33;20185;-74
2021/10/22 02:22:32;;;;;;;7.72;3.65;;;;;;;3.89;81.16;100117.44;8490856;33;20149;-73
2021/10/22 02:27:36;;;;;;;6.40;3.30;;;;;;;3.97;80.47;100112.53;8466510;33;20470;-73
2021/10/22 02:32:53;;;;;;;7.22;3.15;;;;;;;4.08;79.83;100099.47;8498591;33;20602;-74
2021/10/22 02:37:57;;;;;;;10.70;4.13;;;;;;;4.16;79.56;100094.56;8488744;33;20161;-73
2021/10/22 02:43:00;;;;;;;9.30;3.27;;;;;;;3.98;80.36;100087.69;8487558;33;22516;-74
2021/10/22 02:48:04;;;;;;;10.52;3.67;;;;;;;4.21;79.71;100077.50;8486835;33;20410;-73
2021/10/22 02:53:09;;;;;;;6.88;3.00;;;;;;;3.89;80.25;100082.88;8463083;33;20445;-74
2021/10/22 02:58:12;;;;;;;12.98;3.00;;;;;;;4.04;79.42;100084.66;8487430;33;20200;-74
2021/10/22 03:03:15;;;;;;;6.20;2.75;;;;;;;3.90;79.94;100090.78;8496757;33;20234;-74
2021/10/22 03:08:19;;;;;;;6.05;3.20;;;;;;;4.07;78.86;100073.84;8502719;33;20545;-74
2021/10/22 03:13:22;;;;;;;8.68;3.72;;;;;;;4.04;79.34;100076.69;8537401;33;20422;-74
2021/10/22 03:18:25;;;;;;;8.52;3.67;;;;;;;4.04;78.96;100062.56;8525626;33;20610;-74
2021/10/22 03:23:30;;;;;;;7.72;3.03;;;;;;;4.11;79.01;100067.41;8544846;33;20215;-74
2021/10/22 03:28:33;;;;;;;12.32;3.22;;;;;;;4.12;79.33;100060.31;8543666;33;21883;-73
2021/10/22 03:33:36;;;;;;;7.22;2.90;;;;;;;4.15;78.54;100060.97;8542051;33;20473;-74
2021/10/22 03:38:43;;;;;;;9.05;2.63;;;;;;;4.15;78.68;100042.34;8543572;33;20445;-73
2021/10/22 03:43:47;;;;;;;9.07;3.63;;;;;;;3.92;79.32;100050.81;8518633;33;21969;-73
2021/10/22 03:48:51;;;;;;;5.35;2.65;;;;;;;3.92;79.38;100041.06;8540612;33;20203;-73
2021/10/22 03:53:56;;;;;;;10.52;3.28;;;;;;;4.11;78.57;100039.97;8517270;33;20417;-75
2021/10/22 03:58:59;;;;;;;9.52;4.50;;;;;;;4.24;77.91;100032.97;8541901;33;20582;-75
2021/10/22 04:04:02;;;;;;;3.92;1.70;;;;;;;3.97;78.12;100035.47;8544124;33;20188;-74
2021/10/22 04:09:07;;;;;;;12.25;3.95;;;;;;;4.21;77.65;100021.66;8542601;33;20227;-75
2021/10/22 04:14:11;;;;;;;8.43;3.15;;;;;;;4.19;77.74;100019.09;8547597;33;20459;-74
2021/10/22 04:19:14;;;;;;;9.52;3.40;;;;;;;4.16;77.43;100037.88;8546594;33;20652;-74
2021/10/22 04:24:19;;;;;;;8.95;3.25;;;;;;;4.14;76.92;100037.13;8539342;33;20520;-75
2021/10/22 04:29:22;;;;;;;7.72;3.33;;;;;;;4.04;77.80;100028.00;8537336;33;20675;-74
2021/10/22 04:34:27;;;;;;;9.45;2.78;;;;;;;4.17;76.78;100026.31;8539537;33;20226;-74
2021/10/22 04:44:52;;;;;;;10.20;3.42;;;;;;;4.24;76.62;100026.78;8546276;33;20500;-74
2021/10/22 04:49:55;;;;;;;6.25;3.10;;;;;;;4.32;76.15;100019.22;8545539;33;20406;-74
2021/10/22 04:55:01;;;;;;;9.23;3.35;;;;;;;4.13;76.39;100051.38;8538640;33;20414;-74
2021/10/22 05:00:05;;;;;;;9.38;2.83;;;;;;;4.16;75.98;100037.88;8539445;33;20132;-74
2021/10/22 05:05:09;;;;;;;4.80;2.25;;;;;;;4.24;75.63;100046.25;8544965;33;20437;-74
2021/10/22 05:10:14;;;;;;;5.00;2.47;;;;;;;4.15;75.46;100058.31;8559153;33;20483;-74
2021/10/22 05:15:17;;;;;;;9.45;3.03;;;;;;;4.11;75.93;100055.91;8560735;33;20198;-75
2021/10/22 05:20:20;;;;;;;8.40;2.95;;;;;;;4.25;75.25;100044.44;8536977;33;20443;-75
2021/10/22 05:25:25;;;;;;;11.13;3.08;;;;;;;4.29;75.04;100046.84;8535386;33;20464;-75
2021/10/22 05:30:28;;;;;;;5.95;2.63;;;;;;;3.98;75.02;100029.22;8564031;33;20244;-75
2021/10/22 05:35:32;;;;;;;6.60;3.30;;;;;;;4.07;74.31;100017.19;8540850;33;21196;-75
2021/10/22 05:40:39;;;;;;;9.23;3.17;;;;;;;4.32;73.78;100001.44;8565658;33;21645;-75
2021/10/22 05:45:42;;;;;;;3.05;2.42;;;;;;;4.19;73.79;99989.84;8554643;33;20141;-74
2021/10/22 05:50:45;;;;;;;8.32;2.72;;;;;;;4.16;73.26;99977.59;8527909;33;20957;-73
2021/10/22 05:55:49;;;;;;;2.08;1.42;;;;;;;4.24;72.62;99982.44;8529224;33;20436;-74
2021/10/22 06:00:53;;;;;;;10.60;2.72;;;;;;;4.35;72.32;99976.47;8544891;33;20162;-74
2021/10/22 06:05:56;;;;;;;7.32;2.70;;;;;;;4.55;71.41;99967.25;8545681;33;21943;-74
2021/10/22 06:11:01;;;;;;;5.60;2.20;;;;;;;4.55;71.83;99956.59;8548382;33;20727;-73
2021/10/22 06:16:05;;;;;;;4.75;2.13;;;;;;;4.49;71.95;99972.97;8544056;33;20545;-73
2021/10/22 06:21:09;;;;;;;7.68;3.25;;;;;;;4.66;71.23;99955.94;8546668;33;21032;-75
2021/10/22 06:26:14;;;;;;;9.40;2.45;;;;;;;4.46;71.70;99967.84;8544462;33;20549;-74
2021/10/22 06:31:17;;;;;;;5.38;1.60;;;;;;;4.53;71.28;99979.81;8519170;33;20278;-73
2021/10/22 06:36:21;;;;;;;13.52;3.65;;;;;;;4.67;71.11;99965.66;8542613;33;20517;-72
2021/10/22 06:41:26;;;;;;;7.78;2.50;;;;;;;4.90;70.64;99980.13;8544589;33;20869;-72
2021/10/22 06:46:30;;;;;;;8.75;2.28;;;;;;;4.78;71.14;99976.47;8543351;33;20152;-72
2021/10/22 06:51:33;;;;;;;7.13;2.17;;;;;;;4.84;71.31;99990.22;8543840;33;20405;-72
2021/10/22 06:56:38;;;;;;;7.22;2.65;;;;;;;4.87;71.27;99993.66;8543624;33;20424;-72
2021/10/22 07:01:41;;;;;;;8.50;2.60;;;;;;;4.89;71.46;99979.28;8543439;33;20560;-72
2021/10/22 07:12:06;;;;;;;11.13;3.22;;;;;;;5.02;71.66;99993.56;8532596;33;20618;-72
2021/10/22 07:17:09;;;;;;;9.85;2.85;;;;;;;5.24;71.46;99997.50;8499891;33;20469;-71
2021/10/22 07:22:14;;;;;;;4.70;2.28;;;;;;;5.01;72.02;100018.44;8533262;33;20441;-73
2021/10/22 07:27:19;;;;;;;4.28;2.35;;;;;;;5.13;71.96;100002.63;8515155;33;20430;-72
2021/10/22 07:32:22;;;;;;;10.32;2.85;;;;;;;5.12;71.93;99975.16;8517338;33;20144;-73
2021/10/22 07:37:25;;;;;;;9.70;2.50;;;;;;;5.61;70.17;99995.91;8475871;33;20146;-72
2021/10/22 07:42:29;;;;;;;6.45;2.25;;;;;;;5.70;69.90;100000.66;8431025;33;20142;-72
2021/10/22 07:47:35;;;;;;;11.75;2.78;;;;;;;5.88;69.23;99990.56;8431594;34;20405;-72
2021/10/22 07:52:38;;;;;;;3.03;2.00;;;;;;;5.73;69.17;99983.59;8432414;34;20328;-72
2021/10/22 07:57:42;;;;;;;10.65;2.78;;;;;;;6.20;69.01;99978.63;8432331;34;20173;-73
2021/10/22 08:02:45;;;;;;;8.32;3.10;;;;;;;6.19;68.80;99993.78;8433849;34;20437;-72
2021/10/22 08:07:49;;;;;;;4.03;2.70;;;;;;;6.43;68.67;99990.38;8433554;34;20564;-72
2021/10/22 08:12:53;;;;;;;6.78;2.80;;;;;;;6.26;68.56;99980.91;8433344;34;20185;-73
2021/10/22 08:18:10;;;;;;;8.98;2.08;;;;;;;6.35;68.56;99989.09;8433180;34;20161;-73
2021/10/22 08:23:14;;;;;;;4.63;2.42;;;;;;;6.56;67.28;99985.91;8431944;34;20485;-74
2021/10/22 08:28:21;;;;;;;5.53;2.58;;;;;;;6.58;68.03;99995.50;8434105;34;20246;-72
2021/10/22 08:33:25;;;;;;;5.38;2.65;;;;;;;6.86;67.61;99990.88;8434584;34;20223;-73
2021/10/22 08:38:29;;;;;;;7.18;2.58;;;;;;;6.89;67.06;99992.50;8432006;34;20406;-73
2021/10/22 08:43:36;;;;;;;4.55;2.40;;;;;;;6.84;67.38;100019.50;8431508;34;20984;-72
2021/10/22 08:48:40;;;;;;;6.55;2.80;;;;;;;7.22;67.00;99990.03;8430022;34;20245;-72
2021/10/22 08:53:44;;;;;;;5.13;2.30;;;;;;;7.35;66.58;99984.66;8404571;34;20316;-72
2021/10/22 08:58:48;;;;;;;5.07;2.38;;;;;;;7.06;67.22;99989.47;8426813;34;20595;-73
2021/10/22 09:03:53;;;;;;;5.28;2.45;;;;;;;7.32;67.34;99997.38;8426278;34;20491;-72
2021/10/22 09:08:57;;;;;;;6.60;2.15;;;;;;;6.98;68.21;99994.50;8432343;34;20184;-72
2021/10/22 09:14:05;;;;;;;7.05;2.17;;;;;;;7.45;67.59;99980.31;8433245;34;20536;-72
2021/10/22 09:19:09;;;;;;;5.28;1.48;;;;;;;7.51;67.76;99973.66;8433590;33;20439;-72
2021/10/22 09:24:15;;;;;;;6.35;2.15;;;;;;;6.93;68.96;100005.50;8408898;34;21230;-72
2021/10/22 09:29:22;;;;;;;10.43;2.47;;;;;;;6.68;69.88;99989.50;8433009;34;20513;-72
2021/10/22 09:34:31;;;;;;;5.43;2.55;;;;;;;6.80;69.66;99999.28;8479887;33;20459;-73
2021/10/22 09:39:37;;;;;;;4.50;2.08;;;;;;;7.38;67.08;99986.25;8489755;33;20418;-72
2021/10/22 09:44:43;;;;;;;5.78;2.90;;;;;;;7.91;66.99;99979.53;8488093;33;20586;-73
2021/10/22 09:49:51;;;;;;;7.07;2.38;;;;;;;7.55;66.65;99993.88;8488694;33;20440;-73
2021/10/22 09:55:08;;;;;;;7.85;2.40;;;;;;;8.07;66.12;99971.19;8487121;33;20699;-74
2021/10/22 10:00:21;;;;;;;6.35;2.50;;;;;;;8.20;66.02;99976.44;8484204;33;20193;-74
2021/10/22 10:05:24;;;;;;;8.25;2.42;;;;;;;8.09;65.75;99981.75;8479413;33;20156;-72
2021/10/22 10:10:28;;;;;;;3.88;2.25;;;;;;;8.50;64.20;99977.72;8478448;33;20511;-72
2021/10/22 10:15:33;;;;;;;6.07;2.58;;;;;;;7.80;66.23;100000.03;8492741;33;21210;-72
2021/10/22 10:20:37;;;;;;;5.15;2.38;;;;;;;7.70;65.93;100002.53;8478635;33;20423;-72
2021/10/22 10:25:40;;;;;;;3.67;2.08;;;;;;;7.87;65.85;100001.25;8484245;33;20147;-72
2021/10/22 10:30:45;;;;;;;4.97;2.22;;;;;;;8.10;65.04;99989.66;8482958;33;20152;-73
2021/10/22 10:35:49;;;;;;;3.42;2.20;;;;;;;7.90;65.38;100009.09;8477393;33;20580;-71
2021/10/22 10:40:52;;;;;;;6.57;3.30;;;;;;;7.88;66.24;99993.13;8477308;33;20239;-72
2021/10/22 10:45:56;;;;;;;5.47;2.45;;;;;;;8.14;65.91;100000.97;8479070;33;20262;-72
2021/10/22 10:51:04;;;;;;;18.58;3.08;;;;;;;8.09;65.83;100006.72;8480057;33;20455;-72
2021/10/22 10:56:22;;;;;;;5.30;2.75;;;;;;;8.18;65.58;100000.63;8456595;33;20533;-71
2021/10/22 11:01:30;;;;;;;6.10;2.47;;;;;;;8.44;65.01;99994.22;8480598;33;20591;-72
2021/10/22 11:06:39;;;;;;;6.03;2.20;;;;;;;9.09;62.66;99988.16;8475917;33;20543;-71
2021/10/22 11:11:44;;;;;;;2.80;2.03;;;;;;;8.86;63.58;100010.56;8479641;33;20430;-71
2021/10/22 11:16:58;;;;;;;5.55;1.95;;;;;;;8.46;65.35;100006.56;8479967;33;20471;-72
2021/10/22 11:22:08;;;;;;;3.47;1.75;;;;;;;8.30;64.90;100028.25;8478005;33;20398;-72
2021/10/22 11:27:14;;;;;;;6.30;2.30;;;;;;;8.27;65.88;100031.19;8486068;33;20144;-71
2021/10/22 11:32:20;;;;;;;3.50;2.35;;;;;;;8.63;65.78;100021.28;8484757;33;20556;-72
2021/10/22 11:37:26;;;;;;;5.43;1.40;;;;;;;8.75;64.55;100014.09;8478357;33;21035;-71
2021/10/22 11:42:31;;;;;;;3.42;1.98;;;;;;;9.23;63.59;100012.00;8475532;33;20920;-71
2021/10/22 11:47:37;;;;;;;6.18;2.22;;;;;;;9.18;63.71;100019.56;8476843;33;20486;-71
2021/10/22 11:52:40;;;;;;;6.07;2.42;;;;;;;8.81;65.22;100003.78;8478035;33;20141;-71
2021/10/22 11:57:43;;;;;;;7.30;2.40;;;;;;;8.83;65.67;100000.94;8482403;33;20188;-71
2021/10/22 12:02:48;;;;;;;2.40;1.80;;;;;;;8.36;67.19;100002.84;8491888;33;20542;-71
2021/10/22 12:07:57;;;;;;;6.53;2.60;;;;;;;8.32;67.62;99985.34;8499021;33;20149;-72
2021/10/22 12:13:00;;;;;;;2.10;1.52;;;;;;;8.20;67.76;99986.28;8515731;33;20165;-72
2021/10/22 12:18:05;;;;;;;4.28;2.10;;;;;;;8.30;67.52;99997.97;8515782;33;20394;-72
2021/10/22 12:23:13;;;;;;;2.17;1.73;;;;;;;8.11;69.12;100009.25;8502193;33;20529;-72
2021/10/22 12:28:17;;;;;;;6.32;2.30;;;;;;;8.00;70.57;100010.06;8497436;33;20191;-72
2021/10/22 12:33:21;;;;;;;3.85;2.45;;;;;;;8.06;71.63;100024.78;8513820;33;20147;-72
2021/10/22 12:38:32;;;;;;;6.00;2.40;;;;;;;7.85;72.87;100021.94;8538081;33;20421;-72
2021/10/22 12:43:36;;;;;;;8.07;3.03;;;;;;;7.64;75.18;100024.41;8542264;33;20640;-71
2021/10/22 12:48:47;;;;;;;5.25;2.70;;;;;;;7.26;78.24;100038.75;8519051;33;20145;-72
2021/10/22 12:53:53;;;;;;;8.75;2.85;;;;;;;6.79;82.00;100029.63;8543093;33;20452;-72
2021/10/22 12:58:58;;;;;;;3.55;2.28;;;;;;;6.52;82.96;100059.97;8542995;33;20237;-71
2021/10/22 13:04:05;;;;;;;4.70;2.50;;;;;;;6.34;85.02;100095.94;8539548;33;20400;-72
2021/10/22 13:09:37;;;;;;;16.83;4.72;;;;;;;6.28;87.62;100099.00;8501485;33;20183;-72
2021/10/22 13:30:27;;;;;;;7.65;3.95;;;;;;;6.13;100.00;100159.56;8745387;32;21063;-74
2021/10/22 13:35:31;;;;;;;9.27;3.75;;;;;;;6.14;100.00;100148.81;8677568;33;20187;-75
2021/10/22 13:40:34;;;;;;;7.00;2.67;;;;;;;6.26;100.00;100140.94;8675884;33;20298;-74
2021/10/22 13:45:40;;;;;;;7.43;3.15;;;;;;;6.43;100.00;100142.47;8679114;33;20183;-73
2021/10/22 13:50:43;;;;;;;4.13;2.58;;;;;;;6.02;100.00;100148.75;8674943;33;20195;-73
2021/10/22 13:55:46;;;;;;;4.38;1.98;;;;;;;6.12;100.00;100163.19;8680203;33;20179;-72
2021/10/22 14:00:51;;;;;;;1.92;1.70;;;;;;;6.24;100.00;100165.03;8679737;33;20188;-73
2021/10/22 14:05:55;;;;;;;4.07;1.50;;;;;;;6.36;99.10;100158.91;8679218;33;20399;-73
2021/10/22 14:11:02;;;;;;;4.10;1.30;;;;;;;6.36;98.21;100172.25;8679975;33;20153;-73
2021/10/22 14:16:16;;;;;;;1.95;1.30;;;;;;;6.40;91.77;100179.06;8678071;33;20307;-73
2021/10/22 14:32:04;;;;;;;2.00;1.00;;;;;;;6.88;88.26;100207.06;8679765;33;20187;-72
2021/10/22 14:37:08;;;;;;;2.85;1.30;;;;;;;6.68;87.50;100211.06;8677556;33;20507;-73
2021/10/22 14:42:11;;;;;;;3.97;1.50;;;;;;;6.85;87.17;100219.59;8659845;33;20188;-72
2021/10/22 14:47:20;;;;;;;2.75;1.20;;;;;;;6.67;86.98;100218.22;8658278;33;20240;-71
2021/10/22 14:52:26;;;;;;;2.80;2.00;;;;;;;6.72;87.37;100255.25;8659766;33;20947;-72
2021/10/22 14:57:29;;;;;;;2.75;1.33;;;;;;;6.62;86.48;100258.53;8658469;33;20208;-71
2021/10/22 15:02:34;;;;;;;5.40;1.90;;;;;;;6.65;86.11;100256.63;8661727;33;20375;-74
2021/10/22 15:07:37;;;;;;;3.83;1.55;;;;;;;6.54;85.93;100268.88;8659753;33;20696;-72
2021/10/22 15:12:40;;;;;;;2.65;1.30;;;;;;;6.71;85.59;100278.44;8659294;33;20196;-72
2021/10/22 15:17:44;;;;;;;3.95;1.60;;;;;;;6.44;86.49;100282.91;8659145;33;20573;-72
2021/10/22 15:22:48;;;;;;;3.97;1.60;;;;;;;6.53;86.47;100299.19;8659264;33;20191;-72
2021/10/22 15:27:51;;;;;;;4.90;2.45;;;;;;;6.91;85.98;100311.88;8658393;33;20200;-72
2021/10/22 15:32:55;;;;;;;1.83;1.60;;;;;;;6.74;85.90;100314.75;8658267;33;20219;-72
2021/10/22 15:37:59;;;;;;;3.00;2.00;;;;;;;6.78;85.52;100327.78;8659207;33;20163;-70
2021/10/22 15:43:02;;;;;;;5.25;1.60;;;;;;;6.57;85.85;100337.22;8658939;33;20720;-72
2021/10/22 15:48:07;;;;;;;4.00;1.92;;;;;;;6.64;85.75;100322.53;8658585;33;21024;-72
2021/10/22 15:53:11;;;;;;;2.85;1.48;;;;;;;6.58;85.50;100352.25;8657326;33;20231;-71
2021/10/22 15:58:14;;;;;;;6.25;1.80;;;;;;;6.45;85.40;100357.56;8657901;33;20227;-72
2021/10/22 16:03:18;;;;;;;4.55;1.92;;;;;;;6.48;85.23;100369.84;8658256;33;20245;-71
2021/10/22 16:08:28;;;;;;;3.92;1.60;;;;;;;6.43;85.01;100372.78;8656136;33;20470;-71
2021/10/22 16:13:49;;;;;;;7.53;1.92;;;;;;;6.66;84.10;100376.63;8657602;33;20243;-72
2021/10/22 16:18:55;;;;;;;3.40;1.67;;;;;;;6.39;84.22;100395.31;8652216;33;20261;-71
2021/10/22 16:23:58;;;;;;;1.88;1.23;;;;;;;6.52;82.72;100406.03;8660172;33;20760;-71
2021/10/22 16:29:03;;;;;;;4.45;1.85;;;;;;;6.59;82.77;100412.72;8656804;33;20281;-71
2021/10/22 16:39:30;;;;;;;4.40;2.17;;;;;;;6.32;82.81;100448.19;8657043;33;20249;-72
2021/10/22 16:44:39;;;;;;;3.33;1.55;;;;;;;6.21;82.80;100457.81;8656123;33;20183;-71
2021/10/22 16:49:44;;;;;;;3.08;1.83;;;;;;;6.39;82.08;100465.53;8656812;33;21105;-71
2021/10/22 16:54:47;;;;;;;6.18;2.03;;;;;;;6.17;81.66;100471.34;8656224;33;20226;-74
2021/10/22 16:59:50;;;;;;;3.90;1.60;;;;;;;6.18;81.49;100490.88;8659082;33;20963;-73
2021/10/22 17:04:56;;;;;;;6.20;1.90;;;;;;;6.13;82.37;100501.81;8656715;33;20164;-73
2021/10/22 17:09:59;;;;;;;8.52;2.00;;;;;;;5.82;83.77;100516.13;8645442;33;20195;-73
2021/10/22 17:15:02;;;;;;;7.80;2.35;;;;;;;5.98;83.42;100520.53;8656408;33;20192;-73
2021/10/22 17:20:09;;;;;;;10.93;2.67;;;;;;;5.89;83.71;100533.44;8656449;33;20226;-72
2021/10/22 17:25:12;;;;;;;4.82;2.08;;;;;;;5.88;83.66;100542.41;8617294;33;20216;-73
2021/10/22 17:30:15;;;;;;;6.63;2.30;;;;;;;5.86;84.30;100562.13;8599061;33;20145;-73
2021/10/22 17:35:21;;;;;;;6.78;2.70;;;;;;;5.61;85.51;100557.34;8598834;33;20197;-73
2021/10/22 17:40:25;;;;;;;4.38;2.35;;;;;;;5.60;85.39;100569.81;8599051;33;20184;-73
2021/10/22 17:45:28;;;;;;;6.95;3.13;;;;;;;5.75;84.79;100584.06;8619530;33;20625;-73
2021/10/22 17:50:32;;;;;;;12.27;4.10;;;;;;;5.88;84.53;100625.06;8628838;33;20416;-73
2021/10/22 17:55:35;;;;;;;9.88;3.35;;;;;;;5.55;85.47;100629.66;8620956;33;20206;-73
2021/10/22 18:00:40;;;;;;;6.72;2.65;;;;;;;6.02;84.05;100618.06;8616926;33;20185;-72
2021/10/22 18:05:46;;;;;;;10.23;2.40;;;;;;;5.88;83.04;100621.53;8640977;33;20449;-73
2021/10/22 18:10:49;;;;;;;5.72;2.33;;;;;;;5.81;81.89;100645.00;8626130;33;20425;-74
2021/10/22 18:15:52;;;;;;;5.20;2.50;;;;;;;5.75;79.10;100644.50;8651714;33;20430;-73
2021/10/22 18:20:57;;;;;;;5.68;2.10;;;;;;;5.44;78.69;100657.75;8603989;33;20445;-74
2021/10/22 18:26:01;;;;;;;5.28;1.90;;;;;;;5.71;76.24;100670.50;8603170;33;20242;-74
2021/10/22 18:31:07;;;;;;;4.60;2.03;;;;;;;5.35;76.72;100668.94;8604290;33;20216;-73
2021/10/22 18:36:15;;;;;;;7.60;1.98;;;;;;;5.39;75.77;100681.13;8603291;33;20396;-73
2021/10/22 18:41:20;;;;;;;5.07;1.60;;;;;;;5.17;75.48;100691.22;8603231;33;20459;-74
2021/10/22 18:46:25;;;;;;;3.95;1.63;;;;;;;5.41;74.90;100691.72;8603097;33;20300;-73
2021/10/22 18:51:29;;;;;;;7.95;1.80;;;;;;;5.10;75.57;100709.34;8603220;33;21428;-73
2021/10/22 18:56:32;;;;;;;9.93;2.38;;;;;;;5.13;76.02;100716.28;8603007;33;20998;-73
2021/10/22 19:01:37;;;;;;;6.85;1.80;;;;;;;5.10;76.09;100729.75;8603399;33;20693;-74
2021/10/22 19:06:44;;;;;;;9.18;3.00;;;;;;;5.12;76.28;100741.22;8603566;33;20280;-73
2021/10/22 19:11:47;;;;;;;6.05;2.80;;;;;;;4.97;77.82;100756.16;8604182;33;20211;-74
2021/10/22 19:16:51;;;;;;;5.07;2.63;;;;;;;5.06;78.12;100758.38;8602464;33;20986;-73
2021/10/22 19:21:55;;;;;;;8.18;3.03;;;;;;;5.15;78.66;100763.19;8603226;33;20184;-74
2021/10/22 19:26:59;;;;;;;9.13;2.90;;;;;;;5.11;80.14;100763.47;8601743;33;20559;-74
2021/10/22 19:32:03;;;;;;;10.65;4.68;;;;;;;4.96;81.60;100778.38;8602379;33;20982;-74
2021/10/22 19:37:07;;;;;;;7.15;2.70;;;;;;;4.94;82.11;100783.81;8601830;33;20153;-74
2021/10/22 19:42:10;;;;;;;10.43;3.22;;;;;;;4.95;82.71;100784.66;8601706;33;20197;-73
2021/10/22 19:47:13;;;;;;;6.75;3.10;;;;;;;4.87;83.63;100793.03;8600704;33;20485;-74
2021/10/22 19:52:18;;;;;;;8.35;2.63;;;;;;;4.78;83.33;100807.66;8601743;33;20449;-74
2021/10/22 19:57:21;;;;;;;6.60;3.38;;;;;;;4.78;83.20;100814.81;8601156;33;20188;-74
2021/10/22 20:02:24;;;;;;;5.75;2.97;;;;;;;4.60;83.56;100824.53;8601957;33;20255;-74
2021/10/22 20:07:28;;;;;;;8.50;3.28;;;;;;;4.73;83.33;100819.47;8601520;33;20177;-75
2021/10/22 20:12:32;;;;;;;8.80;2.85;;;;;;;4.81;82.93;100817.31;8601557;33;20180;-75
2021/10/22 20:17:36;;;;;;;9.57;2.95;;;;;;;4.72;83.21;100834.59;8601157;33;20212;-75
2021/10/22 20:22:46;;;;;;;10.02;3.17;;;;;;;4.66;82.62;100842.84;8600430;33;20921;-75
2021/10/22 20:27:49;;;;;;;8.57;3.20;;;;;;;4.70;83.21;100865.75;8600571;33;20555;-75
2021/10/22 20:32:52;;;;;;;5.82;2.72;;;;;;;4.39;84.14;100869.03;8600783;33;20781;-74
2021/10/22 20:37:56;;;;;;;10.07;3.03;;;;;;;4.47;84.23;100864.19;8603366;33;20184;-74
2021/10/22 20:43:00;;;;;;;6.30;3.40;;;;;;;4.51;84.38;100864.91;8648156;33;20215;-76
2021/10/22 20:48:05;;;;;;;6.82;3.17;;;;;;;4.47;84.42;100877.50;8657708;33;20188;-74
2021/10/22 20:58:32;;;;;;;12.55;4.22;;;;;;;4.51;83.94;100899.50;8633453;33;20669;-74
2021/10/22 21:03:36;;;;;;;7.95;3.30;;;;;;;4.26;85.39;100903.31;8656334;33;20175;-74
2021/10/22 21:08:42;;;;;;;11.85;4.25;;;;;;;4.50;84.33;100906.63;8679662;33;20160;-74
2021/10/22 21:13:45;;;;;;;9.52;3.20;;;;;;;4.47;84.25;100920.06;8662421;33;20263;-74
2021/10/22 21:18:48;;;;;;;10.43;4.20;;;;;;;4.56;83.82;100929.41;8678220;33;20906;-74
2021/10/22 21:23:53;;;;;;;7.38;3.38;;;;;;;4.30;84.46;100933.28;8659496;33;20263;-74
2021/10/22 21:28:56;;;;;;;10.70;3.60;;;;;;;4.27;84.98;100930.75;8660239;33;20180;-75
2021/10/22 21:34:01;;;;;;;8.18;3.63;;;;;;;4.42;84.45;100935.38;8657702;33;20210;-75
2021/10/22 21:39:05;;;;;;;13.15;3.30;;;;;;;4.37;84.55;100938.25;8657850;33;20687;-74
2021/10/22 21:44:09;;;;;;;8.95;3.70;;;;;;;4.26;84.83;100942.34;8657276;33;20149;-74
2021/10/22 21:49:12;;;;;;;9.45;3.72;;;;;;;4.20;84.11;100953.25;8659954;33;20595;-73
2021/10/22 21:54:16;;;;;;;13.43;3.85;;;;;;;4.40;83.66;100961.19;8662313;33;20338;-73
2021/10/22 21:59:19;;;;;;;13.85;4.05;;;;;;;4.35;83.37;100973.84;8661462;33;20141;-74
2021/10/22 22:04:22;;;;;;;8.77;3.13;;;;;;;4.25;83.40;100988.47;8661531;33;25424;-74
2021/10/22 22:09:27;;;;;;;9.85;3.45;;;;;;;4.38;82.68;100994.97;8662113;33;20180;-74
2021/10/22 22:14:31;;;;;;;7.80;3.00;;;;;;;4.28;82.67;100997.19;8661780;33;20600;-74
2021/10/22 22:19:34;;;;;;;15.35;4.22;;;;;;;4.12;83.76;101005.00;8661420;33;20183;-75
2021/10/22 22:24:39;;;;;;;7.07;3.15;;;;;;;4.27;83.38;101013.22;8661350;33;20528;-74
2021/10/22 22:29:42;;;;;;;6.47;3.08;;;;;;;4.08;84.04;101016.69;8661277;33;20180;-74
2021/10/22 22:34:45;;;;;;;9.73;3.30;;;;;;;4.06;84.02;101023.88;8660959;33;20176;-73
2021/10/22 22:39:49;;;;;;;8.85;3.20;;;;;;;3.98;84.28;101026.00;8661509;33;20227;-74
2021/10/22 22:44:52;;;;;;;6.80;2.83;;;;;;;3.99;83.47;101026.88;8660387;33;20222;-75
2021/10/22 22:49:55;;;;;;;8.27;2.63;;;;;;;3.89;82.88;101029.03;8660743;33;20155;-74
2021/10/22 22:55:00;;;;;;;11.70;3.60;;;;;;;3.87;82.89;101033.59;8659935;33;20658;-74
2021/10/22 23:00:05;;;;;;;3.55;2.30;;;;;;;3.89;82.46;101031.69;8660273;33;20600;-74
2021/10/22 23:05:09;;;;;;;11.10;4.35;;;;;;;3.86;82.48;101045.97;8660783;33;20541;-74
2021/10/22 23:10:14;;;;;;;10.18;3.33;;;;;;;4.05;81.92;101055.84;8660187;33;20133;-73
2021/10/22 23:15:17;;;;;;;7.10;2.92;;;;;;;3.88;82.12;101062.75;8659759;33;20257;-73
2021/10/22 23:20:20;;;;;;;6.97;2.45;;;;;;;3.70;82.82;101055.53;8659841;33;20538;-73
2021/10/22 23:25:25;;;;;;;8.80;3.45;;;;;;;3.71;82.86;101063.44;8659252;33;20191;-75
2021/10/22 23:30:28;;;;;;;7.97;3.75;;;;;;;4.00;81.32;101073.78;8659892;33;20287;-74
2021/10/22 23:35:31;;;;;;;12.73;2.90;;;;;;;3.83;81.95;101085.13;8659465;33;20181;-73
2021/10/22 23:40:38;;;;;;;6.15;2.78;;;;;;;3.69;82.21;101104.31;8660043;33;20613;-74
2021/10/22 23:45:41;;;;;;;11.30;3.83;;;;;;;3.63;82.61;101091.28;8658072;33;20187;-74
2021/10/22 23:50:44;;;;;;;15.48;3.47;;;;;;;3.60;82.22;101107.34;8659655;33;20544;-74
2021/10/22 23:55:49;;;;;;;7.90;3.03;;;;;;;3.66;82.26;101109.75;8659119;33;20141;-75
